KSYM

Morehead-Rowan County Clyde A Thomas Regional Airport

Morehead, Kentucky, USA
METAR KSYM 160135Z AUTO 00000KT 3SM BR OVC007 10/10 A2988 RMK AO2
Observed Flight Rules
Dec-16 @ 01:35 UTC (19 minutes ago) Instrument Flight Rules
Visibility Clouds Conditions
3 miles
  • Overcast at 700' AGL
  • Mist
Temperatures Readings
Current 10°C / 50°F
Dewpoint 10°C / 50°F
Humidity 100%
Altimeter 29.88" Hg
Pressure 1012 hPa
Elevation 313
METAR KSYM 160135Z AUTO 00000KT 3SM BR OVC007 10/10 A2988 RMK AO2
Observed Flight Rules
Dec-16 @ 01:35 UTC
(19 minutes ago)
IFR
Clouds
  • Overcast at 700' AGL
Conditions
  • Mist
Temperature Dewpoint
10°C / 50°F 10°C / 50°F
Humidity Altimeter Pressure
100% 29.88" Hg 1012 hPa